sensor_id;sensor_type;location;lat;lon;timestamp;P1;durP1;ratioP1;P2;durP2;ratioP2
8399;SDS011;4237;47.030;15.396;2024-01-27T00:00:50;19.87;;;10.80;;
8399;SDS011;4237;47.030;15.396;2024-01-27T00:03:18;20.70;;;11.70;;
8399;SDS011;4237;47.030;15.396;2024-01-27T00:05:47;18.17;;;10.13;;
8399;SDS011;4237;47.030;15.396;2024-01-27T00:08:16;18.87;;;10.27;;
8399;SDS011;4237;47.030;15.396;2024-01-27T00:10:44;19.47;;;10.23;;
8399;SDS011;4237;47.030;15.396;2024-01-27T00:13:13;14.33;;;9.60;;
8399;SDS011;4237;47.030;15.396;2024-01-27T00:15:41;15.23;;;9.37;;
8399;SDS011;4237;47.030;15.396;2024-01-27T00:18:10;15.37;;;9.20;;
8399;SDS011;4237;47.030;15.396;2024-01-27T00:20:38;18.07;;;9.80;;
8399;SDS011;4237;47.030;15.396;2024-01-27T00:23:07;13.40;;;8.90;;
8399;SDS011;4237;47.030;15.396;2024-01-27T00:25:35;13.33;;;8.87;;
8399;SDS011;4237;47.030;15.396;2024-01-27T00:28:04;15.10;;;8.57;;
8399;SDS011;4237;47.030;15.396;2024-01-27T00:30:33;14.37;;;7.60;;
8399;SDS011;4237;47.030;15.396;2024-01-27T00:33:01;15.50;;;8.40;;
8399;SDS011;4237;47.030;15.396;2024-01-27T00:35:30;12.23;;;6.80;;
8399;SDS011;4237;47.030;15.396;2024-01-27T00:37:59;11.13;;;7.10;;
8399;SDS011;4237;47.030;15.396;2024-01-27T00:40:27;12.67;;;7.30;;
8399;SDS011;4237;47.030;15.396;2024-01-27T00:42:56;12.10;;;6.33;;
8399;SDS011;4237;47.030;15.396;2024-01-27T00:45:25;8.43;;;5.73;;
8399;SDS011;4237;47.030;15.396;2024-01-27T00:47:55;6.43;;;4.53;;
8399;SDS011;4237;47.030;15.396;2024-01-27T00:50:24;8.40;;;4.93;;
8399;SDS011;4237;47.030;15.396;2024-01-27T00:52:53;7.00;;;4.47;;
8399;SDS011;4237;47.030;15.396;2024-01-27T00:55:21;7.73;;;4.53;;
8399;SDS011;4237;47.030;15.396;2024-01-27T00:57:50;6.57;;;4.10;;
8399;SDS011;4237;47.030;15.396;2024-01-27T01:00:20;6.27;;;4.00;;
8399;SDS011;4237;47.030;15.396;2024-01-27T01:02:48;3.43;;;2.43;;
8399;SDS011;4237;47.030;15.396;2024-01-27T01:05:17;3.10;;;2.00;;
8399;SDS011;4237;47.030;15.396;2024-01-27T01:07:46;3.00;;;1.40;;
8399;SDS011;4237;47.030;15.396;2024-01-27T01:10:14;1.60;;;1.10;;
8399;SDS011;4237;47.030;15.396;2024-01-27T01:12:43;1.50;;;0.70;;
8399;SDS011;4237;47.030;15.396;2024-01-27T01:15:11;0.93;;;0.60;;
8399;SDS011;4237;47.030;15.396;2024-01-27T01:17:40;1.53;;;0.50;;
8399;SDS011;4237;47.030;15.396;2024-01-27T01:20:09;0.60;;;0.50;;
8399;SDS011;4237;47.030;15.396;2024-01-27T01:22:38;0.60;;;0.40;;
8399;SDS011;4237;47.030;15.396;2024-01-27T01:25:07;1.37;;;0.40;;
8399;SDS011;4237;47.030;15.396;2024-01-27T01:27:35;0.60;;;0.40;;
8399;SDS011;4237;47.030;15.396;2024-01-27T01:30:04;0.80;;;0.40;;
8399;SDS011;4237;47.030;15.396;2024-01-27T01:32:33;1.70;;;0.40;;
8399;SDS011;4237;47.030;15.396;2024-01-27T01:35:02;1.27;;;0.50;;
8399;SDS011;4237;47.030;15.396;2024-01-27T01:37:31;0.50;;;0.40;;
8399;SDS011;4237;47.030;15.396;2024-01-27T01:39:59;0.67;;;0.40;;
8399;SDS011;4237;47.030;15.396;2024-01-27T01:42:29;0.47;;;0.43;;
8399;SDS011;4237;47.030;15.396;2024-01-27T01:44:58;0.50;;;0.40;;
8399;SDS011;4237;47.030;15.396;2024-01-27T01:47:26;0.40;;;0.30;;
8399;SDS011;4237;47.030;15.396;2024-01-27T01:49:56;0.50;;;0.50;;
8399;SDS011;4237;47.030;15.396;2024-01-27T01:52:25;0.77;;;0.40;;
8399;SDS011;4237;47.030;15.396;2024-01-27T01:54:54;1.33;;;0.40;;
8399;SDS011;4237;47.030;15.396;2024-01-27T01:57:23;0.70;;;0.50;;
8399;SDS011;4237;47.030;15.396;2024-01-27T01:59:51;0.90;;;0.50;;
8399;SDS011;4237;47.030;15.396;2024-01-27T02:02:20;1.40;;;0.50;;
8399;SDS011;4237;47.030;15.396;2024-01-27T02:04:48;0.70;;;0.40;;
8399;SDS011;4237;47.030;15.396;2024-01-27T02:07:17;0.50;;;0.40;;
8399;SDS011;4237;47.030;15.396;2024-01-27T02:09:45;0.50;;;0.40;;
8399;SDS011;4237;47.030;15.396;2024-01-27T02:12:14;0.50;;;0.40;;
8399;SDS011;4237;47.030;15.396;2024-01-27T02:14:42;0.30;;;0.30;;
8399;SDS011;4237;47.030;15.396;2024-01-27T02:17:11;0.53;;;0.40;;
8399;SDS011;4237;47.030;15.396;2024-01-27T02:19:39;0.50;;;0.30;;
8399;SDS011;4237;47.030;15.396;2024-01-27T02:22:08;0.80;;;0.40;;
8399;SDS011;4237;47.030;15.396;2024-01-27T02:24:36;1.17;;;0.50;;
8399;SDS011;4237;47.030;15.396;2024-01-27T02:27:05;0.73;;;0.57;;
8399;SDS011;4237;47.030;15.396;2024-01-27T02:29:34;1.50;;;0.43;;
8399;SDS011;4237;47.030;15.396;2024-01-27T02:32:02;0.40;;;0.40;;
8399;SDS011;4237;47.030;15.396;2024-01-27T02:34:31;0.77;;;0.30;;
8399;SDS011;4237;47.030;15.396;2024-01-27T02:37:00;0.77;;;0.50;;
8399;SDS011;4237;47.030;15.396;2024-01-27T02:39:28;0.40;;;0.40;;
8399;SDS011;4237;47.030;15.396;2024-01-27T02:41:57;1.20;;;0.50;;
8399;SDS011;4237;47.030;15.396;2024-01-27T02:44:25;1.17;;;0.57;;
8399;SDS011;4237;47.030;15.396;2024-01-27T02:46:54;0.50;;;0.40;;
8399;SDS011;4237;47.030;15.396;2024-01-27T02:49:22;0.50;;;0.40;;
8399;SDS011;4237;47.030;15.396;2024-01-27T02:51:51;0.70;;;0.40;;
8399;SDS011;4237;47.030;15.396;2024-01-27T02:54:20;0.63;;;0.40;;
8399;SDS011;4237;47.030;15.396;2024-01-27T02:56:48;0.83;;;0.40;;
8399;SDS011;4237;47.030;15.396;2024-01-27T02:59:17;1.50;;;0.40;;
8399;SDS011;4237;47.030;15.396;2024-01-27T03:01:45;1.33;;;0.40;;
8399;SDS011;4237;47.030;15.396;2024-01-27T03:04:14;0.30;;;0.30;;
8399;SDS011;4237;47.030;15.396;2024-01-27T03:06:42;2.13;;;1.00;;
8399;SDS011;4237;47.030;15.396;2024-01-27T03:09:11;1.10;;;0.40;;
8399;SDS011;4237;47.030;15.396;2024-01-27T03:11:40;0.63;;;0.40;;
8399;SDS011;4237;47.030;15.396;2024-01-27T03:14:09;0.40;;;0.40;;
8399;SDS011;4237;47.030;15.396;2024-01-27T03:16:37;0.53;;;0.37;;
8399;SDS011;4237;47.030;15.396;2024-01-27T03:19:06;0.43;;;0.40;;
8399;SDS011;4237;47.030;15.396;2024-01-27T03:21:35;1.50;;;0.50;;
8399;SDS011;4237;47.030;15.396;2024-01-27T03:24:03;1.70;;;0.50;;
8399;SDS011;4237;47.030;15.396;2024-01-27T03:26:32;0.90;;;0.50;;
8399;SDS011;4237;47.030;15.396;2024-01-27T03:29:01;1.00;;;0.43;;
8399;SDS011;4237;47.030;15.396;2024-01-27T03:31:30;0.80;;;0.50;;
8399;SDS011;4237;47.030;15.396;2024-01-27T03:34:00;0.50;;;0.40;;
8399;SDS011;4237;47.030;15.396;2024-01-27T03:36:29;1.03;;;0.40;;
8399;SDS011;4237;47.030;15.396;2024-01-27T03:38:57;1.23;;;0.47;;
8399;SDS011;4237;47.030;15.396;2024-01-27T03:41:26;0.80;;;0.30;;
8399;SDS011;4237;47.030;15.396;2024-01-27T03:43:55;1.03;;;0.50;;
8399;SDS011;4237;47.030;15.396;2024-01-27T03:46:24;3.00;;;0.73;;
8399;SDS011;4237;47.030;15.396;2024-01-27T03:48:52;0.67;;;0.60;;
8399;SDS011;4237;47.030;15.396;2024-01-27T03:51:21;1.30;;;0.60;;
8399;SDS011;4237;47.030;15.396;2024-01-27T03:53:50;2.10;;;0.77;;
8399;SDS011;4237;47.030;15.396;2024-01-27T03:56:18;1.70;;;0.70;;
8399;SDS011;4237;47.030;15.396;2024-01-27T03:58:47;1.07;;;0.53;;
8399;SDS011;4237;47.030;15.396;2024-01-27T04:01:15;1.00;;;0.60;;
8399;SDS011;4237;47.030;15.396;2024-01-27T04:03:44;0.73;;;0.60;;
8399;SDS011;4237;47.030;15.396;2024-01-27T04:06:12;0.73;;;0.40;;
8399;SDS011;4237;47.030;15.396;2024-01-27T04:08:41;0.53;;;0.50;;
8399;SDS011;4237;47.030;15.396;2024-01-27T04:11:20;0.93;;;0.50;;
8399;SDS011;4237;47.030;15.396;2024-01-27T04:13:48;0.50;;;0.50;;
8399;SDS011;4237;47.030;15.396;2024-01-27T04:16:18;0.70;;;0.47;;
8399;SDS011;4237;47.030;15.396;2024-01-27T04:18:47;0.47;;;0.47;;
8399;SDS011;4237;47.030;15.396;2024-01-27T04:21:15;0.40;;;0.40;;
8399;SDS011;4237;47.030;15.396;2024-01-27T04:23:44;0.70;;;0.60;;
8399;SDS011;4237;47.030;15.396;2024-01-27T04:26:12;2.83;;;0.50;;
8399;SDS011;4237;47.030;15.396;2024-01-27T04:28:41;0.40;;;0.40;;
8399;SDS011;4237;47.030;15.396;2024-01-27T04:31:09;0.87;;;0.50;;
8399;SDS011;4237;47.030;15.396;2024-01-27T04:33:38;0.60;;;0.60;;
8399;SDS011;4237;47.030;15.396;2024-01-27T04:36:07;2.03;;;0.50;;
8399;SDS011;4237;47.030;15.396;2024-01-27T04:38:37;0.57;;;0.57;;
8399;SDS011;4237;47.030;15.396;2024-01-27T04:41:05;1.90;;;0.50;;
8399;SDS011;4237;47.030;15.396;2024-01-27T04:43:34;1.47;;;0.60;;
8399;SDS011;4237;47.030;15.396;2024-01-27T04:46:02;0.60;;;0.50;;
8399;SDS011;4237;47.030;15.396;2024-01-27T04:48:31;1.17;;;0.50;;
8399;SDS011;4237;47.030;15.396;2024-01-27T04:50:59;0.90;;;0.37;;
8399;SDS011;4237;47.030;15.396;2024-01-27T04:53:28;1.00;;;0.50;;
8399;SDS011;4237;47.030;15.396;2024-01-27T04:55:57;1.43;;;0.60;;
8399;SDS011;4237;47.030;15.396;2024-01-27T04:58:25;1.17;;;0.53;;
8399;SDS011;4237;47.030;15.396;2024-01-27T05:00:54;3.13;;;0.70;;
8399;SDS011;4237;47.030;15.396;2024-01-27T05:03:22;0.60;;;0.50;;
8399;SDS011;4237;47.030;15.396;2024-01-27T05:05:51;1.40;;;0.50;;
8399;SDS011;4237;47.030;15.396;2024-01-27T05:08:20;0.50;;;0.50;;
8399;SDS011;4237;47.030;15.396;2024-01-27T05:10:48;0.87;;;0.60;;
8399;SDS011;4237;47.030;15.396;2024-01-27T05:13:17;1.17;;;0.60;;
8399;SDS011;4237;47.030;15.396;2024-01-27T05:15:46;1.23;;;0.50;;
8399;SDS011;4237;47.030;15.396;2024-01-27T05:18:15;1.07;;;0.63;;
8399;SDS011;4237;47.030;15.396;2024-01-27T05:20:44;1.13;;;0.60;;
8399;SDS011;4237;47.030;15.396;2024-01-27T05:23:12;0.83;;;0.50;;
8399;SDS011;4237;47.030;15.396;2024-01-27T05:25:41;0.63;;;0.50;;
8399;SDS011;4237;47.030;15.396;2024-01-27T05:28:09;1.27;;;0.50;;
8399;SDS011;4237;47.030;15.396;2024-01-27T05:30:38;1.07;;;0.53;;
8399;SDS011;4237;47.030;15.396;2024-01-27T05:33:06;1.17;;;0.50;;
8399;SDS011;4237;47.030;15.396;2024-01-27T05:35:35;1.23;;;0.60;;
8399;SDS011;4237;47.030;15.396;2024-01-27T05:38:04;1.37;;;0.70;;
8399;SDS011;4237;47.030;15.396;2024-01-27T05:40:32;1.20;;;0.50;;
8399;SDS011;4237;47.030;15.396;2024-01-27T05:43:01;0.80;;;0.70;;
8399;SDS011;4237;47.030;15.396;2024-01-27T05:45:29;1.40;;;0.70;;
8399;SDS011;4237;47.030;15.396;2024-01-27T05:47:58;0.80;;;0.50;;
8399;SDS011;4237;47.030;15.396;2024-01-27T05:50:26;0.67;;;0.50;;
8399;SDS011;4237;47.030;15.396;2024-01-27T05:52:56;1.57;;;0.50;;
8399;SDS011;4237;47.030;15.396;2024-01-27T05:55:25;0.83;;;0.50;;
8399;SDS011;4237;47.030;15.396;2024-01-27T05:57:53;1.00;;;0.70;;
8399;SDS011;4237;47.030;15.396;2024-01-27T06:00:23;1.13;;;0.70;;
8399;SDS011;4237;47.030;15.396;2024-01-27T06:02:52;0.47;;;0.40;;
8399;SDS011;4237;47.030;15.396;2024-01-27T06:05:21;1.60;;;0.70;;
8399;SDS011;4237;47.030;15.396;2024-01-27T06:07:49;2.17;;;0.70;;
8399;SDS011;4237;47.030;15.396;2024-01-27T06:10:18;0.73;;;0.50;;
8399;SDS011;4237;47.030;15.396;2024-01-27T06:12:47;1.53;;;0.57;;
8399;SDS011;4237;47.030;15.396;2024-01-27T06:15:15;1.10;;;0.60;;
8399;SDS011;4237;47.030;15.396;2024-01-27T06:17:44;2.63;;;0.87;;
8399;SDS011;4237;47.030;15.396;2024-01-27T06:20:12;2.07;;;0.70;;
8399;SDS011;4237;47.030;15.396;2024-01-27T06:22:43;1.40;;;0.60;;
8399;SDS011;4237;47.030;15.396;2024-01-27T06:25:11;0.90;;;0.70;;
8399;SDS011;4237;47.030;15.396;2024-01-27T06:27:40;1.47;;;0.60;;
8399;SDS011;4237;47.030;15.396;2024-01-27T06:30:09;0.83;;;0.40;;
8399;SDS011;4237;47.030;15.396;2024-01-27T06:32:38;1.20;;;0.70;;
8399;SDS011;4237;47.030;15.396;2024-01-27T06:35:06;4.23;;;0.97;;
8399;SDS011;4237;47.030;15.396;2024-01-27T06:37:35;3.03;;;0.90;;
8399;SDS011;4237;47.030;15.396;2024-01-27T06:40:04;2.33;;;0.90;;
8399;SDS011;4237;47.030;15.396;2024-01-27T06:42:34;3.40;;;1.37;;
8399;SDS011;4237;47.030;15.396;2024-01-27T06:45:03;3.93;;;1.60;;
8399;SDS011;4237;47.030;15.396;2024-01-27T06:47:32;2.93;;;1.30;;
8399;SDS011;4237;47.030;15.396;2024-01-27T06:50:01;6.40;;;2.30;;
8399;SDS011;4237;47.030;15.396;2024-01-27T06:52:30;6.57;;;2.00;;
8399;SDS011;4237;47.030;15.396;2024-01-27T06:54:58;4.00;;;1.77;;
8399;SDS011;4237;47.030;15.396;2024-01-27T06:57:27;4.07;;;2.33;;
8399;SDS011;4237;47.030;15.396;2024-01-27T06:59:55;7.60;;;2.30;;
8399;SDS011;4237;47.030;15.396;2024-01-27T07:02:24;9.07;;;3.30;;
8399;SDS011;4237;47.030;15.396;2024-01-27T07:04:53;5.07;;;2.10;;
8399;SDS011;4237;47.030;15.396;2024-01-27T07:07:24;6.10;;;2.53;;
8399;SDS011;4237;47.030;15.396;2024-01-27T07:09:57;6.63;;;2.67;;
8399;SDS011;4237;47.030;15.396;2024-01-27T07:12:26;6.43;;;2.90;;
8399;SDS011;4237;47.030;15.396;2024-01-27T07:14:54;3.60;;;2.10;;
8399;SDS011;4237;47.030;15.396;2024-01-27T07:17:23;5.67;;;2.60;;
8399;SDS011;4237;47.030;15.396;2024-01-27T07:19:51;4.33;;;2.87;;
8399;SDS011;4237;47.030;15.396;2024-01-27T07:22:20;3.73;;;2.57;;
8399;SDS011;4237;47.030;15.396;2024-01-27T07:24:50;3.33;;;2.60;;
8399;SDS011;4237;47.030;15.396;2024-01-27T07:27:19;4.00;;;2.90;;
8399;SDS011;4237;47.030;15.396;2024-01-27T07:29:47;5.23;;;3.27;;
8399;SDS011;4237;47.030;15.396;2024-01-27T07:32:16;6.50;;;4.30;;
8399;SDS011;4237;47.030;15.396;2024-01-27T07:34:45;9.67;;;5.20;;
8399;SDS011;4237;47.030;15.396;2024-01-27T07:37:13;5.03;;;3.70;;
8399;SDS011;4237;47.030;15.396;2024-01-27T07:39:42;8.90;;;4.23;;
8399;SDS011;4237;47.030;15.396;2024-01-27T07:42:10;8.10;;;4.30;;
8399;SDS011;4237;47.030;15.396;2024-01-27T07:44:39;7.43;;;2.90;;
8399;SDS011;4237;47.030;15.396;2024-01-27T07:47:07;3.90;;;2.37;;
8399;SDS011;4237;47.030;15.396;2024-01-27T07:49:36;5.63;;;2.57;;
8399;SDS011;4237;47.030;15.396;2024-01-27T07:52:05;6.13;;;2.87;;
8399;SDS011;4237;47.030;15.396;2024-01-27T07:54:33;7.67;;;3.03;;
8399;SDS011;4237;47.030;15.396;2024-01-27T07:57:04;6.57;;;3.10;;
8399;SDS011;4237;47.030;15.396;2024-01-27T07:59:33;6.47;;;3.03;;
8399;SDS011;4237;47.030;15.396;2024-01-27T08:02:02;6.20;;;3.43;;
8399;SDS011;4237;47.030;15.396;2024-01-27T08:04:31;6.07;;;3.20;;
8399;SDS011;4237;47.030;15.396;2024-01-27T08:06:59;11.23;;;2.90;;
8399;SDS011;4237;47.030;15.396;2024-01-27T08:09:29;7.30;;;2.93;;
8399;SDS011;4237;47.030;15.396;2024-01-27T08:11:58;9.13;;;4.20;;
8399;SDS011;4237;47.030;15.396;2024-01-27T08:14:27;4.87;;;3.00;;
8399;SDS011;4237;47.030;15.396;2024-01-27T08:17:00;3.77;;;2.70;;
8399;SDS011;4237;47.030;15.396;2024-01-27T08:19:30;4.73;;;3.10;;
8399;SDS011;4237;47.030;15.396;2024-01-27T08:21:59;3.57;;;2.10;;
8399;SDS011;4237;47.030;15.396;2024-01-27T08:24:27;3.63;;;1.97;;
8399;SDS011;4237;47.030;15.396;2024-01-27T08:26:56;2.67;;;1.30;;
8399;SDS011;4237;47.030;15.396;2024-01-27T08:29:27;1.57;;;0.93;;
8399;SDS011;4237;47.030;15.396;2024-01-27T08:31:56;2.00;;;1.30;;
8399;SDS011;4237;47.030;15.396;2024-01-27T08:34:24;7.20;;;1.80;;
8399;SDS011;4237;47.030;15.396;2024-01-27T08:36:53;4.70;;;1.70;;
8399;SDS011;4237;47.030;15.396;2024-01-27T08:39:23;4.30;;;1.47;;
8399;SDS011;4237;47.030;15.396;2024-01-27T08:41:51;2.60;;;1.10;;
8399;SDS011;4237;47.030;15.396;2024-01-27T08:44:20;2.90;;;1.30;;
8399;SDS011;4237;47.030;15.396;2024-01-27T08:46:50;2.70;;;1.10;;
8399;SDS011;4237;47.030;15.396;2024-01-27T08:49:18;5.17;;;1.73;;
8399;SDS011;4237;47.030;15.396;2024-01-27T08:51:47;1.87;;;1.20;;
8399;SDS011;4237;47.030;15.396;2024-01-27T08:54:15;3.00;;;1.20;;
8399;SDS011;4237;47.030;15.396;2024-01-27T08:56:44;1.60;;;0.90;;
8399;SDS011;4237;47.030;15.396;2024-01-27T08:59:12;2.60;;;1.13;;
8399;SDS011;4237;47.030;15.396;2024-01-27T09:01:41;4.13;;;1.00;;
8399;SDS011;4237;47.030;15.396;2024-01-27T09:04:10;2.70;;;1.57;;
8399;SDS011;4237;47.030;15.396;2024-01-27T09:06:38;5.10;;;1.67;;
8399;SDS011;4237;47.030;15.396;2024-01-27T09:09:07;4.03;;;1.40;;
8399;SDS011;4237;47.030;15.396;2024-01-27T09:11:36;2.97;;;1.50;;
8399;SDS011;4237;47.030;15.396;2024-01-27T09:14:04;2.17;;;1.30;;
8399;SDS011;4237;47.030;15.396;2024-01-27T09:16:34;1.87;;;1.03;;
8399;SDS011;4237;47.030;15.396;2024-01-27T09:19:02;1.23;;;0.60;;
8399;SDS011;4237;47.030;15.396;2024-01-27T09:21:31;2.33;;;1.00;;
8399;SDS011;4237;47.030;15.396;2024-01-27T09:23:59;4.50;;;1.23;;
8399;SDS011;4237;47.030;15.396;2024-01-27T09:26:29;1.30;;;0.80;;
8399;SDS011;4237;47.030;15.396;2024-01-27T09:28:57;1.67;;;0.67;;
8399;SDS011;4237;47.030;15.396;2024-01-27T09:31:26;0.93;;;0.70;;
8399;SDS011;4237;47.030;15.396;2024-01-27T09:33:55;2.70;;;0.70;;
8399;SDS011;4237;47.030;15.396;2024-01-27T09:36:23;0.80;;;0.70;;
8399;SDS011;4237;47.030;15.396;2024-01-27T09:38:52;0.77;;;0.60;;
8399;SDS011;4237;47.030;15.396;2024-01-27T09:41:21;0.78;;;0.60;;
8399;SDS011;4237;47.030;15.396;2024-01-27T09:43:50;1.82;;;0.70;;
8399;SDS011;4237;47.030;15.396;2024-01-27T09:46:21;1.47;;;0.53;;
8399;SDS011;4237;47.030;15.396;2024-01-27T09:48:50;1.60;;;0.77;;
8399;SDS011;4237;47.030;15.396;2024-01-27T09:51:20;0.80;;;0.60;;
8399;SDS011;4237;47.030;15.396;2024-01-27T09:53:49;2.57;;;0.90;;
8399;SDS011;4237;47.030;15.396;2024-01-27T09:56:18;1.40;;;0.80;;
8399;SDS011;4237;47.030;15.396;2024-01-27T09:58:49;2.60;;;0.75;;
8399;SDS011;4237;47.030;15.396;2024-01-27T10:01:19;1.95;;;0.70;;
8399;SDS011;4237;47.030;15.396;2024-01-27T10:03:49;1.27;;;0.80;;
8399;SDS011;4237;47.030;15.396;2024-01-27T10:06:18;3.25;;;0.90;;
8399;SDS011;4237;47.030;15.396;2024-01-27T10:08:52;1.27;;;0.80;;
8399;SDS011;4237;47.030;15.396;2024-01-27T10:11:20;2.10;;;0.60;;
8399;SDS011;4237;47.030;15.396;2024-01-27T10:13:58;3.10;;;0.57;;
8399;SDS011;4237;47.030;15.396;2024-01-27T10:16:23;2.43;;;0.90;;
8399;SDS011;4237;47.030;15.396;2024-01-27T10:19:01;2.57;;;1.10;;
8399;SDS011;4237;47.030;15.396;2024-01-27T10:21:30;4.83;;;1.40;;
8399;SDS011;4237;47.030;15.396;2024-01-27T10:23:59;7.40;;;2.20;;
8399;SDS011;4237;47.030;15.396;2024-01-27T10:26:30;3.77;;;1.43;;
8399;SDS011;4237;47.030;15.396;2024-01-27T10:28:59;3.10;;;1.23;;
8399;SDS011;4237;47.030;15.396;2024-01-27T10:31:28;3.70;;;1.17;;
8399;SDS011;4237;47.030;15.396;2024-01-27T10:33:58;2.57;;;1.33;;
8399;SDS011;4237;47.030;15.396;2024-01-27T10:36:38;1.93;;;1.47;;
8399;SDS011;4237;47.030;15.396;2024-01-27T10:39:18;5.07;;;1.37;;
8399;SDS011;4237;47.030;15.396;2024-01-27T10:41:50;1.67;;;1.22;;
8399;SDS011;4237;47.030;15.396;2024-01-27T10:44:19;2.90;;;1.40;;
8399;SDS011;4237;47.030;15.396;2024-01-27T10:46:48;2.90;;;1.30;;
8399;SDS011;4237;47.030;15.396;2024-01-27T10:49:18;1.60;;;0.93;;
8399;SDS011;4237;47.030;15.396;2024-01-27T10:51:54;3.83;;;1.00;;
8399;SDS011;4237;47.030;15.396;2024-01-27T10:54:26;3.00;;;1.00;;
8399;SDS011;4237;47.030;15.396;2024-01-27T10:56:56;2.37;;;0.88;;
8399;SDS011;4237;47.030;15.396;2024-01-27T10:59:26;2.00;;;0.80;;
8399;SDS011;4237;47.030;15.396;2024-01-27T11:01:55;1.27;;;0.98;;
8399;SDS011;4237;47.030;15.396;2024-01-27T11:04:25;0.90;;;0.60;;
8399;SDS011;4237;47.030;15.396;2024-01-27T11:06:56;1.07;;;0.60;;
8399;SDS011;4237;47.030;15.396;2024-01-27T11:09:26;1.25;;;0.82;;
8399;SDS011;4237;47.030;15.396;2024-01-27T11:11:56;3.85;;;0.90;;
8399;SDS011;4237;47.030;15.396;2024-01-27T11:14:25;0.60;;;0.60;;
8399;SDS011;4237;47.030;15.396;2024-01-27T11:16:56;0.68;;;0.50;;
8399;SDS011;4237;47.030;15.396;2024-01-27T11:19:25;2.08;;;0.68;;
8399;SDS011;4237;47.030;15.396;2024-01-27T11:22:04;1.55;;;0.55;;
8399;SDS011;4237;47.030;15.396;2024-01-27T11:24:32;1.55;;;0.60;;
8399;SDS011;4237;47.030;15.396;2024-01-27T11:27:02;1.55;;;0.70;;
8399;SDS011;4237;47.030;15.396;2024-01-27T11:29:32;0.60;;;0.50;;
8399;SDS011;4237;47.030;15.396;2024-01-27T11:32:01;1.25;;;0.72;;
8399;SDS011;4237;47.030;15.396;2024-01-27T11:34:46;0.90;;;0.62;;
8399;SDS011;4237;47.030;15.396;2024-01-27T11:37:16;0.82;;;0.60;;
8399;SDS011;4237;47.030;15.396;2024-01-27T11:39:46;1.20;;;0.65;;
8399;SDS011;4237;47.030;15.396;2024-01-27T11:42:16;1.80;;;0.80;;
8399;SDS011;4237;47.030;15.396;2024-01-27T11:44:45;1.00;;;0.62;;
8399;SDS011;4237;47.030;15.396;2024-01-27T11:47:14;0.90;;;0.50;;
8399;SDS011;4237;47.030;15.396;2024-01-27T11:49:51;0.78;;;0.50;;
8399;SDS011;4237;47.030;15.396;2024-01-27T11:52:20;0.50;;;0.40;;
8399;SDS011;4237;47.030;15.396;2024-01-27T11:54:56;1.25;;;0.60;;
8399;SDS011;4237;47.030;15.396;2024-01-27T11:57:25;1.35;;;0.60;;
8399;SDS011;4237;47.030;15.396;2024-01-27T11:59:54;1.43;;;0.60;;
8399;SDS011;4237;47.030;15.396;2024-01-27T12:02:23;0.63;;;0.50;;
8399;SDS011;4237;47.030;15.396;2024-01-27T12:04:52;0.97;;;0.50;;
8399;SDS011;4237;47.030;15.396;2024-01-27T12:07:22;1.10;;;0.40;;
8399;SDS011;4237;47.030;15.396;2024-01-27T12:09:51;1.45;;;0.70;;
8399;SDS011;4237;47.030;15.396;2024-01-27T12:12:19;2.85;;;0.50;;
8399;SDS011;4237;47.030;15.396;2024-01-27T12:14:50;1.20;;;0.70;;
8399;SDS011;4237;47.030;15.396;2024-01-27T12:17:19;0.63;;;0.40;;
8399;SDS011;4237;47.030;15.396;2024-01-27T12:19:50;1.87;;;0.80;;
8399;SDS011;4237;47.030;15.396;2024-01-27T12:22:26;1.73;;;0.90;;
8399;SDS011;4237;47.030;15.396;2024-01-27T12:24:56;1.52;;;0.60;;
8399;SDS011;4237;47.030;15.396;2024-01-27T12:27:43;1.20;;;0.70;;
8399;SDS011;4237;47.030;15.396;2024-01-27T12:30:11;0.82;;;0.50;;
8399;SDS011;4237;47.030;15.396;2024-01-27T12:32:41;0.30;;;0.30;;
8399;SDS011;4237;47.030;15.396;2024-01-27T12:35:10;0.80;;;0.50;;
8399;SDS011;4237;47.030;15.396;2024-01-27T12:37:39;0.63;;;0.40;;
8399;SDS011;4237;47.030;15.396;2024-01-27T12:40:17;1.33;;;0.40;;
8399;SDS011;4237;47.030;15.396;2024-01-27T12:42:47;1.10;;;0.47;;
8399;SDS011;4237;47.030;15.396;2024-01-27T12:45:16;2.47;;;0.47;;
8399;SDS011;4237;47.030;15.396;2024-01-27T12:47:45;0.47;;;0.40;;
8399;SDS011;4237;47.030;15.396;2024-01-27T12:50:13;0.83;;;0.50;;
8399;SDS011;4237;47.030;15.396;2024-01-27T12:52:43;1.60;;;0.50;;
8399;SDS011;4237;47.030;15.396;2024-01-27T12:55:11;0.40;;;0.40;;
8399;SDS011;4237;47.030;15.396;2024-01-27T12:57:40;1.22;;;0.47;;
8399;SDS011;4237;47.030;15.396;2024-01-27T13:00:09;1.02;;;0.60;;
8399;SDS011;4237;47.030;15.396;2024-01-27T13:02:39;2.10;;;0.47;;
8399;SDS011;4237;47.030;15.396;2024-01-27T13:05:08;0.85;;;0.60;;
8399;SDS011;4237;47.030;15.396;2024-01-27T13:07:36;1.17;;;0.70;;
8399;SDS011;4237;47.030;15.396;2024-01-27T13:10:05;1.27;;;0.70;;
8399;SDS011;4237;47.030;15.396;2024-01-27T13:12:34;1.45;;;0.57;;
8399;SDS011;4237;47.030;15.396;2024-01-27T13:15:03;1.15;;;0.50;;
8399;SDS011;4237;47.030;15.396;2024-01-27T13:17:31;1.42;;;0.90;;
8399;SDS011;4237;47.030;15.396;2024-01-27T13:20:00;1.40;;;0.82;;
8399;SDS011;4237;47.030;15.396;2024-01-27T13:22:29;0.53;;;0.40;;
8399;SDS011;4237;47.030;15.396;2024-01-27T13:24:57;1.10;;;0.80;;
8399;SDS011;4237;47.030;15.396;2024-01-27T13:27:27;1.52;;;0.60;;
8399;SDS011;4237;47.030;15.396;2024-01-27T13:29:56;1.57;;;0.67;;
8399;SDS011;4237;47.030;15.396;2024-01-27T13:32:24;0.93;;;0.50;;
8399;SDS011;4237;47.030;15.396;2024-01-27T13:34:53;2.07;;;0.40;;
8399;SDS011;4237;47.030;15.396;2024-01-27T13:37:21;2.60;;;1.10;;
8399;SDS011;4237;47.030;15.396;2024-01-27T13:39:50;2.10;;;1.50;;
8399;SDS011;4237;47.030;15.396;2024-01-27T13:42:19;2.10;;;0.63;;
8399;SDS011;4237;47.030;15.396;2024-01-27T13:44:48;2.30;;;1.43;;
8399;SDS011;4237;47.030;15.396;2024-01-27T13:47:16;1.73;;;0.90;;
8399;SDS011;4237;47.030;15.396;2024-01-27T13:49:45;4.53;;;2.53;;
8399;SDS011;4237;47.030;15.396;2024-01-27T13:52:14;2.20;;;1.03;;
8399;SDS011;4237;47.030;15.396;2024-01-27T13:54:42;1.03;;;0.70;;
8399;SDS011;4237;47.030;15.396;2024-01-27T13:57:11;3.10;;;2.17;;
8399;SDS011;4237;47.030;15.396;2024-01-27T13:59:40;1.87;;;1.13;;
8399;SDS011;4237;47.030;15.396;2024-01-27T14:02:08;2.40;;;1.40;;
8399;SDS011;4237;47.030;15.396;2024-01-27T14:04:37;1.37;;;0.67;;
8399;SDS011;4237;47.030;15.396;2024-01-27T14:07:06;1.87;;;1.30;;
8399;SDS011;4237;47.030;15.396;2024-01-27T14:09:36;1.90;;;0.70;;
8399;SDS011;4237;47.030;15.396;2024-01-27T14:12:05;1.80;;;0.97;;
8399;SDS011;4237;47.030;15.396;2024-01-27T14:14:34;2.20;;;1.30;;
8399;SDS011;4237;47.030;15.396;2024-01-27T14:17:04;1.10;;;0.80;;
8399;SDS011;4237;47.030;15.396;2024-01-27T14:19:33;1.67;;;0.60;;
8399;SDS011;4237;47.030;15.396;2024-01-27T14:22:02;1.33;;;0.60;;
8399;SDS011;4237;47.030;15.396;2024-01-27T14:24:30;1.50;;;0.40;;
8399;SDS011;4237;47.030;15.396;2024-01-27T14:27:00;0.90;;;0.60;;
8399;SDS011;4237;47.030;15.396;2024-01-27T14:29:31;1.67;;;0.77;;
8399;SDS011;4237;47.030;15.396;2024-01-27T14:32:01;1.80;;;0.60;;
8399;SDS011;4237;47.030;15.396;2024-01-27T14:34:30;1.63;;;0.57;;
8399;SDS011;4237;47.030;15.396;2024-01-27T14:36:59;1.70;;;0.50;;
8399;SDS011;4237;47.030;15.396;2024-01-27T14:39:29;0.50;;;0.40;;
8399;SDS011;4237;47.030;15.396;2024-01-27T14:41:59;1.53;;;0.50;;
8399;SDS011;4237;47.030;15.396;2024-01-27T14:44:29;0.77;;;0.50;;
8399;SDS011;4237;47.030;15.396;2024-01-27T14:46:58;0.93;;;0.63;;
8399;SDS011;4237;47.030;15.396;2024-01-27T14:49:27;0.93;;;0.70;;
8399;SDS011;4237;47.030;15.396;2024-01-27T14:51:55;1.00;;;0.73;;
8399;SDS011;4237;47.030;15.396;2024-01-27T14:54:24;1.13;;;0.73;;
8399;SDS011;4237;47.030;15.396;2024-01-27T14:56:53;0.60;;;0.40;;
8399;SDS011;4237;47.030;15.396;2024-01-27T14:59:22;1.63;;;0.70;;
8399;SDS011;4237;47.030;15.396;2024-01-27T15:01:50;1.47;;;0.40;;
8399;SDS011;4237;47.030;15.396;2024-01-27T15:04:19;0.93;;;0.40;;
8399;SDS011;4237;47.030;15.396;2024-01-27T15:06:47;1.13;;;0.67;;
8399;SDS011;4237;47.030;15.396;2024-01-27T15:09:16;0.50;;;0.40;;
8399;SDS011;4237;47.030;15.396;2024-01-27T15:11:45;0.53;;;0.33;;